Poseidon — JD3978 — position and weather

sailwx.info

Track history (hours):
 
Tides and Currents Weather Stations Pressure Air Temp Water Temp Dewpoint Dewpoint Depression Visibility Wind Speed Wind Dir Waves Ship Positions

Poseidon

Last reported at 2017-Sep-19 10:57 UTC. Time now 2017-Sep-20 18:05 UTC.
Position N 34°35' E 134°52'.

Length 70 m; draft 5 m.

Type: Cargo ship. MMSI: 431007549.

Date/timePositionNaut miles runAvg speedWind from/ knotsBaromVisibWave heightAir tempDewpointWater temp
2017-Sep-19 10:57N 34°35' E 134°52'614.0
2017-Sep-19 10:30N 34°38' E 134°60'612.2
2017-Sep-19 09:59N 34°36' E 135°07'510.4
2017-Sep-19 09:30N 34°37' E 135°13'510.7
2017-Sep-19 09:00N 34°38' E 135°19'5 9.2
2017-Sep-19 08:30N 34°39' E 135°25'2 2.4
2017-Sep-19 07:31N 34°40' E 135°27'0 0.2
2017-Sep-19 07:30N 34°40' E 135°27'0 0.0
2017-Sep-19 06:52N 34°40' E 135°27'0 0.0
2017-Sep-19 06:30N 34°40' E 135°27'0 0.0
2017-Sep-19 06:00N 34°40' E 135°27'0 0.0
2017-Sep-19 05:30N 34°40' E 135°27'0 0.1
2017-Sep-19 04:52N 34°40' E 135°27'0 0.1
2017-Sep-19 04:27N 34°40' E 135°27'0 0.0
2017-Sep-19 03:58N 34°40' E 135°27'1 1.6
2017-Sep-19 03:30N 34°40' E 135°26'4 8.4
2017-Sep-19 02:59N 34°41' E 135°21'2 4.3
2017-Sep-19 02:30N 34°43' E 135°20'0 0.0
2017-Sep-19 01:59N 34°43' E 135°20'0 0.0
2017-Sep-19 01:30N 34°43' E 135°20'0 0.0
2017-Sep-19 01:00N 34°43' E 135°20'0 0.0
2017-Sep-19 00:30N 34°43' E 135°20'0 0.0
2017-Sep-19 00:00N 34°43' E 135°20'0 0.0
2017-Sep-18 23:30N 34°43' E 135°20'0 0.0
2017-Sep-18 23:00N 34°43' E 135°20'3 5.9
2017-Sep-18 22:30N 34°41' E 135°18'5 9.1
2017-Sep-18 22:00N 34°37' E 135°15'510.5
2017-Sep-18 21:30N 34°35' E 135°09'510.5
2017-Sep-18 21:00N 34°36' E 135°03'  
2017-Sep-15 07:02N 34°37' E 134°58'113.4
2017-Sep-15 06:58N 34°38' E 134°59'612.7
2017-Sep-15 06:29N 34°36' E 135°06'510.8
2017-Sep-15 06:00N 34°37' E 135°12'610.8
2017-Sep-15 05:29N 34°38' E 135°19'510.2
2017-Sep-15 05:00N 34°39' E 135°25'2 3.1
2017-Sep-15 04:15N 34°40' E 135°27'0 0.0
2017-Sep-15 03:48N 34°40' E 135°27'0 0.0
2017-Sep-15 03:30N 34°40' E 135°27'0 0.0
2017-Sep-15 03:00N 34°40' E 135°27'0 0.1
2017-Sep-15 02:29N 34°40' E 135°27'0 0.1
2017-Sep-15 01:58N 34°40' E 135°27'2 4.8
2017-Sep-15 01:30N 34°39' E 135°25'1 2.2
2017-Sep-15 01:00N 34°40' E 135°25'0 0.0
2017-Sep-15 00:30N 34°40' E 135°25'0 0.0
2017-Sep-15 00:00N 34°40' E 135°25'0 0.0
2017-Sep-14 23:30N 34°40' E 135°25'0 0.0
2017-Sep-14 23:00N 34°40' E 135°25'0 0.0
2017-Sep-14 22:30N 34°40' E 135°25'1 1.5
2017-Sep-14 22:00N 34°40' E 135°25'3 6.9
2017-Sep-14 21:30N 34°39' E 135°21'0 0.4
2017-Sep-14 21:00N 34°39' E 135°20'0 0.0
2017-Sep-14 20:30N 34°39' E 135°20'0 0.0
2017-Sep-14 20:00N 34°39' E 135°20'0 0.0
2017-Sep-14 19:30N 34°39' E 135°20'0 0.1
2017-Sep-14 19:00N 34°39' E 135°20'4 8.4
2017-Sep-14 18:30N 34°37' E 135°16'5 9.4
2017-Sep-14 18:00N 34°35' E 135°11'510.5
2017-Sep-14 17:30N 34°35' E 135°04'5 9.9
2017-Sep-14 16:59N 34°37' E 134°59'  
2017-Sep-12 03:37N 34°37' E 134°57'113.5
2017-Sep-12 03:30N 34°38' E 134°59'712.4
2017-Sep-12 02:58N 34°35' E 135°06'5 9.6
2017-Sep-12 02:30N 34°34' E 135°11'510.4
2017-Sep-12 01:59N 34°33' E 135°18'510.3
2017-Sep-12 01:30N 34°32' E 135°24'1 0.9
2017-Sep-11 23:53N 34°32' E 135°25'0 0.0
2017-Sep-11 23:09N 34°32' E 135°25'0 0.0
2017-Sep-11 22:58N 34°32' E 135°25'0 0.0
2017-Sep-11 22:23N 34°32' E 135°25'0 0.0
2017-Sep-11 21:54N 34°32' E 135°25'0 0.0
2017-Sep-11 21:28N 34°32' E 135°25'0 0.0
2017-Sep-11 20:59N 34°32' E 135°25'0 0.0
2017-Sep-11 20:12N 34°32' E 135°25'0 0.0
2017-Sep-11 16:34N 34°32' E 135°25'0 0.0
2017-Sep-11 16:30N 34°32' E 135°25'0 0.0
2017-Sep-11 15:59N 34°32' E 135°25'0 0.0
2017-Sep-11 09:42N 34°32' E 135°25'0 0.0
2017-Sep-11 06:25N 34°32' E 135°25'1 2.6
2017-Sep-11 06:00N 34°32' E 135°24'5 9.9
2017-Sep-11 05:30N 34°36' E 135°21'510.1
2017-Sep-11 05:00N 34°40' E 135°25'0 0.1
2017-Sep-11 04:30N 34°40' E 135°25'0 0.0
2017-Sep-11 04:00N 34°40' E 135°25'0 0.0
2017-Sep-11 03:30N 34°40' E 135°25'0 0.0
2017-Sep-11 03:00N 34°40' E 135°25'2 4.1
2017-Sep-11 02:30N 34°40' E 135°22'3 6.5
2017-Sep-11 02:00N 34°43' E 135°20'0 0.0
2017-Sep-11 01:30N 34°43' E 135°20'0 0.0
2017-Sep-11 01:00N 34°43' E 135°20'0 0.0
2017-Sep-11 00:30N 34°43' E 135°20'0 0.8
2017-Sep-11 00:00N 34°43' E 135°20'0 0.0
2017-Sep-10 23:30N 34°43' E 135°20'0 0.0
2017-Sep-10 23:00N 34°43' E 135°20'3 6.4
2017-Sep-10 22:31N 34°40' E 135°18'5 9.9
2017-Sep-10 22:01N 34°36' E 135°15'610.8
2017-Sep-10 21:30N 34°35' E 135°08'  
Track history (hours):
 
Tides and Currents Weather Stations Pressure Air Temp Water Temp Dewpoint Dewpoint Depression Visibility Wind Speed Wind Dir Waves Ship Positions

Poseidon

Last reported at 2017-Sep-19 10:57 UTC. Time now 2017-Sep-20 18:05 UTC.
Position N 34°35' E 134°52'.

Length 70 m; draft 5 m.

Type: Cargo ship. MMSI: 431007549.

Date/timePositionNaut miles runAvg speedWind from/ knotsBaromVisibWave heightAir tempDewpointWater temp
2017-Sep-19 10:57N 34°35' E 134°52'614.0
2017-Sep-19 10:30N 34°38' E 134°60'612.2
2017-Sep-19 09:59N 34°36' E 135°07'510.4
2017-Sep-19 09:30N 34°37' E 135°13'510.7
2017-Sep-19 09:00N 34°38' E 135°19'5 9.2
2017-Sep-19 08:30N 34°39' E 135°25'2 2.4
2017-Sep-19 07:31N 34°40' E 135°27'0 0.2
2017-Sep-19 07:30N 34°40' E 135°27'0 0.0
2017-Sep-19 06:52N 34°40' E 135°27'0 0.0
2017-Sep-19 06:30N 34°40' E 135°27'0 0.0
2017-Sep-19 06:00N 34°40' E 135°27'0 0.0
2017-Sep-19 05:30N 34°40' E 135°27'0 0.1
2017-Sep-19 04:52N 34°40' E 135°27'0 0.1
2017-Sep-19 04:27N 34°40' E 135°27'0 0.0
2017-Sep-19 03:58N 34°40' E 135°27'1 1.6
2017-Sep-19 03:30N 34°40' E 135°26'4 8.4
2017-Sep-19 02:59N 34°41' E 135°21'2 4.3
2017-Sep-19 02:30N 34°43' E 135°20'0 0.0
2017-Sep-19 01:59N 34°43' E 135°20'0 0.0
2017-Sep-19 01:30N 34°43' E 135°20'0 0.0
2017-Sep-19 01:00N 34°43' E 135°20'0 0.0
2017-Sep-19 00:30N 34°43' E 135°20'0 0.0
2017-Sep-19 00:00N 34°43' E 135°20'0 0.0
2017-Sep-18 23:30N 34°43' E 135°20'0 0.0
2017-Sep-18 23:00N 34°43' E 135°20'3 5.9
2017-Sep-18 22:30N 34°41' E 135°18'5 9.1
2017-Sep-18 22:00N 34°37' E 135°15'510.5
2017-Sep-18 21:30N 34°35' E 135°09'510.5
2017-Sep-18 21:00N 34°36' E 135°03'  
2017-Sep-15 07:02N 34°37' E 134°58'113.4
2017-Sep-15 06:58N 34°38' E 134°59'612.7
2017-Sep-15 06:29N 34°36' E 135°06'510.8
2017-Sep-15 06:00N 34°37' E 135°12'610.8
2017-Sep-15 05:29N 34°38' E 135°19'510.2
2017-Sep-15 05:00N 34°39' E 135°25'2 3.1
2017-Sep-15 04:15N 34°40' E 135°27'0 0.0
2017-Sep-15 03:48N 34°40' E 135°27'0 0.0
2017-Sep-15 03:30N 34°40' E 135°27'0 0.0
2017-Sep-15 03:00N 34°40' E 135°27'0 0.1
2017-Sep-15 02:29N 34°40' E 135°27'0 0.1
2017-Sep-15 01:58N 34°40' E 135°27'2 4.8
2017-Sep-15 01:30N 34°39' E 135°25'1 2.2
2017-Sep-15 01:00N 34°40' E 135°25'0 0.0
2017-Sep-15 00:30N 34°40' E 135°25'0 0.0
2017-Sep-15 00:00N 34°40' E 135°25'0 0.0
2017-Sep-14 23:30N 34°40' E 135°25'0 0.0
2017-Sep-14 23:00N 34°40' E 135°25'0 0.0
2017-Sep-14 22:30N 34°40' E 135°25'1 1.5
2017-Sep-14 22:00N 34°40' E 135°25'3 6.9
2017-Sep-14 21:30N 34°39' E 135°21'0 0.4
2017-Sep-14 21:00N 34°39' E 135°20'0 0.0
2017-Sep-14 20:30N 34°39' E 135°20'0 0.0
2017-Sep-14 20:00N 34°39' E 135°20'0 0.0
2017-Sep-14 19:30N 34°39' E 135°20'0 0.1
2017-Sep-14 19:00N 34°39' E 135°20'4 8.4
2017-Sep-14 18:30N 34°37' E 135°16'5 9.4
2017-Sep-14 18:00N 34°35' E 135°11'510.5
2017-Sep-14 17:30N 34°35' E 135°04'5 9.9
2017-Sep-14 16:59N 34°37' E 134°59'  
2017-Sep-12 03:37N 34°37' E 134°57'113.5
2017-Sep-12 03:30N 34°38' E 134°59'712.4
2017-Sep-12 02:58N 34°35' E 135°06'5 9.6
2017-Sep-12 02:30N 34°34' E 135°11'510.4
2017-Sep-12 01:59N 34°33' E 135°18'510.3
2017-Sep-12 01:30N 34°32' E 135°24'1 0.9
2017-Sep-11 23:53N 34°32' E 135°25'0 0.0
2017-Sep-11 23:09N 34°32' E 135°25'0 0.0
2017-Sep-11 22:58N 34°32' E 135°25'0 0.0
2017-Sep-11 22:23N 34°32' E 135°25'0 0.0
2017-Sep-11 21:54N 34°32' E 135°25'0 0.0
2017-Sep-11 21:28N 34°32' E 135°25'0 0.0
2017-Sep-11 20:59N 34°32' E 135°25'0 0.0
2017-Sep-11 20:12N 34°32' E 135°25'0 0.0
2017-Sep-11 16:34N 34°32' E 135°25'0 0.0
2017-Sep-11 16:30N 34°32' E 135°25'0 0.0
2017-Sep-11 15:59N 34°32' E 135°25'0 0.0
2017-Sep-11 09:42N 34°32' E 135°25'0 0.0
2017-Sep-11 06:25N 34°32' E 135°25'1 2.6
2017-Sep-11 06:00N 34°32' E 135°24'5 9.9
2017-Sep-11 05:30N 34°36' E 135°21'510.1
2017-Sep-11 05:00N 34°40' E 135°25'0 0.1
2017-Sep-11 04:30N 34°40' E 135°25'0 0.0
2017-Sep-11 04:00N 34°40' E 135°25'0 0.0
2017-Sep-11 03:30N 34°40' E 135°25'0 0.0
2017-Sep-11 03:00N 34°40' E 135°25'2 4.1
2017-Sep-11 02:30N 34°40' E 135°22'3 6.5
2017-Sep-11 02:00N 34°43' E 135°20'0 0.0
2017-Sep-11 01:30N 34°43' E 135°20'0 0.0
2017-Sep-11 01:00N 34°43' E 135°20'0 0.0
2017-Sep-11 00:30N 34°43' E 135°20'0 0.8
2017-Sep-11 00:00N 34°43' E 135°20'0 0.0
2017-Sep-10 23:30N 34°43' E 135°20'0 0.0
2017-Sep-10 23:00N 34°43' E 135°20'3 6.4
2017-Sep-10 22:31N 34°40' E 135°18'5 9.9
2017-Sep-10 22:01N 34°36' E 135°15'610.8
2017-Sep-10 21:30N 34°35' E 135°08'  

Dump ship's entire track history